Time;durP1;ratioP1;P1;durP2;ratioP2;P2;SDS_P1;SDS_P2;PMS_P1;PMS_P2;Temp;Humidity;BMP_temperature;BMP_pressure;BME280_temperature;BME280_humidity;BME280_pressure;Samples;Min_cycle;Max_cycle;Signal;HPM_P1;HPM_P2
2022/11/11 00:01:25;;;;;;;12.70;8.70;;;10.80;99.90;;;;;;5054249;28;20210;-91
2022/11/11 00:03:55;;;;;;;12.50;8.17;;;10.90;99.90;;;;;;5053413;28;20195;-92
2022/11/11 00:06:24;;;;;;;9.80;8.17;;;10.90;99.90;;;;;;5054216;28;20579;-91
2022/11/11 00:08:51;;;;;;;17.03;8.97;;;10.90;99.90;;;;;;5054198;28;20222;-90
2022/11/11 00:11:21;;;;;;;15.17;8.50;;;10.90;99.90;;;;;;5054240;28;20208;-91
2022/11/11 00:13:47;;;;;;;15.60;8.30;;;10.80;99.90;;;;;;5053856;28;20563;-90
2022/11/11 00:16:18;;;;;;;9.47;8.20;;;10.90;99.90;;;;;;5053728;28;20209;-92
2022/11/11 00:27:13;;;;;;;14.33;7.80;;;10.80;99.90;;;;;;5053745;28;20242;-89
2022/11/11 00:29:46;;;;;;;13.37;8.27;;;10.80;99.90;;;;;;5053765;28;20553;-89
2022/11/11 00:32:29;;;;;;;15.00;8.30;;;10.80;99.90;;;;;;5053466;28;20195;-89
2022/11/11 00:37:44;;;;;;;12.43;8.13;;;10.80;99.90;;;;;;5053627;28;20612;-90
2022/11/11 00:40:12;;;;;;;12.83;8.60;;;10.90;99.90;;;;;;5053526;28;20203;-90
2022/11/11 00:42:41;;;;;;;10.80;7.60;;;10.90;99.90;;;;;;5053653;28;20645;-89
2022/11/11 00:45:10;;;;;;;12.77;8.40;;;11.00;99.90;;;;;;5053370;28;20214;-91
2022/11/11 00:53:15;;;;;;;11.23;8.00;;;10.90;99.90;;;;;;5053546;28;20262;-91
2022/11/11 00:55:43;;;;;;;11.23;8.43;;;10.90;99.90;;;;;;5053454;28;20206;-91
2022/11/11 00:58:12;;;;;;;14.15;9.88;;;10.90;99.90;;;;;;5053112;28;20433;-90
2022/11/11 01:00:39;;;;;;;10.07;8.57;;;10.90;99.90;;;;;;5053753;28;20214;-91
2022/11/11 01:03:05;;;;;;;11.83;7.50;;;10.90;99.90;;;;;;5053577;28;20207;-91
2022/11/11 01:05:37;;;;;;;14.33;7.87;;;10.90;99.90;;;;;;5053188;28;20230;-90
2022/11/11 01:08:04;;;;;;;15.83;8.30;;;10.90;99.90;;;;;;5053742;28;20188;-91
2022/11/11 01:10:38;;;;;;;10.53;7.77;;;10.90;99.90;;;;;;5053837;28;20643;-91
2022/11/11 01:13:17;;;;;;;11.97;8.27;;;10.70;99.90;;;;;;5053558;28;20244;-91
2022/11/11 01:15:49;;;;;;;11.80;8.03;;;10.70;99.90;;;;;;5057931;28;20205;-91
2022/11/11 01:18:18;;;;;;;11.10;8.33;;;10.60;99.90;;;;;;5061729;28;20194;-91
2022/11/11 01:20:47;;;;;;;11.23;8.30;;;10.70;99.90;;;;;;5063541;28;20202;-91
2022/11/11 01:23:14;;;;;;;15.20;8.40;;;10.70;99.90;;;;;;5066214;28;20218;-90
2022/11/11 01:25:43;;;;;;;13.23;8.83;;;10.80;99.90;;;;;;5065106;28;20227;-91
2022/11/11 01:28:11;;;;;;;14.57;8.50;;;10.70;99.90;;;;;;5057732;28;20187;-89
2022/11/11 01:30:39;;;;;;;13.67;9.10;;;10.70;99.90;;;;;;5056235;28;20187;-89
2022/11/11 01:33:06;;;;;;;12.13;8.43;;;10.70;99.90;;;;;;5056230;28;20574;-89
2022/11/11 01:35:38;;;;;;;17.70;9.30;;;10.70;99.90;;;;;;5039238;28;20207;-91
2022/11/11 01:38:06;;;;;;;14.60;10.90;;;10.70;99.90;;;;;;5055410;28;20422;-91
2022/11/11 01:40:42;;;;;;;10.47;9.33;;;10.70;99.90;;;;;;5056642;28;20203;-91
2022/11/11 01:43:22;;;;;;;11.50;8.80;;;10.70;99.90;;;;;;5056060;28;20633;-90
2022/11/11 01:45:58;;;;;;;16.40;9.17;;;10.70;99.90;;;;;;5056344;28;20246;-91
2022/11/11 01:51:28;;;;;;;15.67;10.43;;;10.60;99.90;;;;;;5057255;28;20186;-91
2022/11/11 01:53:59;;;;;;;17.47;9.97;;;10.60;99.90;;;;;;5056848;28;20594;-90
2022/11/11 01:56:29;;;;;;;12.27;10.10;;;10.50;99.90;;;;;;5056938;28;20201;-91
2022/11/11 01:59:02;;;;;;;14.87;9.87;;;10.60;99.90;;;;;;5056117;28;20203;-91
2022/11/11 02:01:35;;;;;;;11.33;9.70;;;10.60;99.90;;;;;;5038829;28;20191;-91
2022/11/11 02:06:54;;;;;;;16.00;9.37;;;10.60;99.90;;;;;;5056080;28;20762;-90
2022/11/11 02:09:24;;;;;;;14.20;8.87;;;10.50;99.90;;;;;;5056188;28;20194;-91
2022/11/11 02:14:46;;;;;;;13.53;8.97;;;10.60;99.90;;;;;;5055721;28;20198;-90
2022/11/11 02:17:16;;;;;;;12.13;8.27;;;10.70;99.90;;;;;;5056211;28;20213;-91
2022/11/11 02:19:51;;;;;;;16.25;10.88;;;10.60;99.90;;;;;;5055426;28;20531;-91
2022/11/11 02:22:27;;;;;;;10.97;8.60;;;10.70;99.90;;;;;;5055962;28;20194;-89
2022/11/11 02:24:57;;;;;;;10.50;9.17;;;10.70;99.90;;;;;;5055794;28;20209;-91
2022/11/11 02:27:27;;;;;;;12.87;9.47;;;10.70;99.90;;;;;;5055463;28;20191;-90
2022/11/11 02:29:56;;;;;;;11.00;8.97;;;10.60;99.90;;;;;;5055523;28;20554;-90
2022/11/11 02:32:26;;;;;;;17.03;8.73;;;10.50;99.90;;;;;;5055676;28;20209;-91
2022/11/11 02:34:55;;;;;;;13.00;8.73;;;10.50;99.90;;;;;;5055941;28;20210;-91
2022/11/11 02:37:24;;;;;;;10.13;7.80;;;10.50;99.90;;;;;;5037962;28;20217;-91
2022/11/11 02:40:01;;;;;;;12.97;8.70;;;10.60;99.90;;;;;;5055650;28;20198;-91
2022/11/11 02:42:35;;;;;;;15.43;8.53;;;10.50;99.90;;;;;;5055439;28;20199;-91
2022/11/11 02:45:05;;;;;;;11.00;8.00;;;10.50;99.90;;;;;;5055612;28;20240;-91
2022/11/11 02:47:38;;;;;;;10.53;7.83;;;10.50;99.90;;;;;;5055275;28;20661;-91
2022/11/11 02:50:08;;;;;;;9.93;7.90;;;10.40;99.90;;;;;;5055368;28;20202;-91
2022/11/11 02:52:37;;;;;;;14.40;8.93;;;10.40;99.90;;;;;;5055455;28;20201;-91
2022/11/11 02:55:08;;;;;;;13.93;8.07;;;10.40;99.90;;;;;;5055144;28;20205;-90
2022/11/11 02:57:36;;;;;;;10.23;8.00;;;10.40;99.90;;;;;;5054948;28;20194;-91
2022/11/11 03:00:05;;;;;;;10.80;8.43;;;10.50;99.90;;;;;;5055210;28;20190;-90
2022/11/11 03:02:35;;;;;;;12.07;7.63;;;10.50;99.90;;;;;;5055226;28;20208;-91
2022/11/11 03:05:08;;;;;;;11.17;8.40;;;10.50;99.90;;;;;;5055314;28;20191;-90
2022/11/11 03:07:35;;;;;;;10.50;8.20;;;10.50;99.90;;;;;;5054864;28;20230;-91
2022/11/11 03:10:07;;;;;;;8.80;7.37;;;10.40;99.90;;;;;;5055159;28;20199;-91
2022/11/11 03:12:34;;;;;;;10.87;7.73;;;10.30;99.90;;;;;;5054501;28;20233;-91
2022/11/11 03:15:02;;;;;;;9.43;8.13;;;10.30;99.90;;;;;;5054980;28;20202;-91
2022/11/11 03:17:40;;;;;;;11.50;7.90;;;10.30;99.90;;;;;;5054877;28;20660;-91
2022/11/11 03:23:01;;;;;;;15.67;9.63;;;10.40;99.90;;;;;;5054725;28;20192;-91
2022/11/11 03:25:38;;;;;;;9.97;8.73;;;10.50;99.90;;;;;;5054324;28;20191;-91
2022/11/11 03:28:06;;;;;;;11.70;8.67;;;10.50;99.90;;;;;;5054769;28;20285;-91
2022/11/11 03:30:33;;;;;;;15.00;9.07;;;10.50;99.90;;;;;;5054563;28;20207;-91
2022/11/11 03:33:01;;;;;;;11.50;9.27;;;10.50;99.90;;;;;;5054540;28;20569;-91
2022/11/11 03:35:30;;;;;;;13.90;10.07;;;10.50;99.90;;;;;;5053671;28;20211;-91
2022/11/11 03:40:45;;;;;;;10.77;8.93;;;10.40;99.90;;;;;;5043002;28;20676;-91
2022/11/11 03:43:14;;;;;;;12.53;9.50;;;10.40;99.90;;;;;;5054456;28;20207;-92
2022/11/11 03:45:41;;;;;;;14.70;9.40;;;10.40;99.90;;;;;;5054245;28;20222;-87
2022/11/11 03:48:08;;;;;;;12.73;9.80;;;10.40;99.90;;;;;;5049587;28;20203;-91
2022/11/11 03:50:35;;;;;;;13.83;9.50;;;10.30;99.90;;;;;;5051675;28;21653;-91
2022/11/11 03:53:02;;;;;;;10.20;9.20;;;10.20;99.90;;;;;;5052866;28;20203;-90
2022/11/11 03:55:29;;;;;;;14.50;9.80;;;10.10;99.90;;;;;;5044165;28;20635;-90
2022/11/11 03:57:58;;;;;;;11.73;9.93;;;10.20;99.90;;;;;;5038881;28;20215;-89
2022/11/11 04:00:28;;;;;;;14.47;9.90;;;10.20;99.90;;;;;;5055077;28;20566;-90
2022/11/11 04:11:24;;;;;;;15.00;9.97;;;10.30;99.90;;;;;;5053026;28;20264;-89
2022/11/11 04:16:38;;;;;;;13.63;9.57;;;10.20;99.90;;;;;;5053120;28;20205;-90
2022/11/11 04:21:51;;;;;;;12.80;10.00;;;10.30;99.90;;;;;;5053370;28;20217;-87
2022/11/11 04:27:10;;;;;;;13.20;9.83;;;10.20;99.90;;;;;;5040663;28;20257;-90
2022/11/11 04:29:39;;;;;;;13.00;10.10;;;10.10;99.90;;;;;;5053220;28;20688;-89
2022/11/11 04:34:54;;;;;;;13.43;10.83;;;10.10;99.90;;;;;;5052956;28;20562;-88
2022/11/11 04:37:22;;;;;;;11.40;9.83;;;10.00;99.90;;;;;;5053535;28;20210;-89
2022/11/11 04:42:40;;;;;;;13.63;10.10;;;9.90;99.90;;;;;;5052964;28;20281;-89
2022/11/11 04:45:29;;;;;;;14.10;10.47;;;10.00;99.90;;;;;;5052904;28;20215;-89
2022/11/11 04:47:59;;;;;;;17.07;9.70;;;10.00;99.90;;;;;;5052954;28;20238;-92
2022/11/11 04:50:28;;;;;;;13.13;10.00;;;9.90;99.90;;;;;;5056060;28;20287;-89
2022/11/11 04:53:02;;;;;;;16.77;10.57;;;10.00;99.90;;;;;;5056879;28;20202;-89
2022/11/11 04:58:16;;;;;;;10.63;9.30;;;9.90;99.90;;;;;;5056663;28;20659;-89
2022/11/11 05:00:44;;;;;;;10.77;9.33;;;9.90;99.90;;;;;;5056538;28;20201;-88
2022/11/11 05:03:17;;;;;;;12.40;9.83;;;9.80;99.90;;;;;;5056646;28;20194;-89
2022/11/11 05:11:17;;;;;;;10.73;9.10;;;9.70;99.90;;;;;;5056451;28;20198;-90
2022/11/11 05:22:17;;;;;;;10.30;8.70;;;9.90;99.90;;;;;;5056048;28;20233;-87
2022/11/11 05:27:32;;;;;;;12.80;9.57;;;10.00;99.90;;;;;;5056046;28;20222;-91
2022/11/11 05:30:00;;;;;;;20.43;10.87;;;9.90;99.90;;;;;;5056307;28;20645;-88
2022/11/11 05:32:28;;;;;;;15.03;10.70;;;9.90;99.90;;;;;;5048832;28;20210;-88
2022/11/11 05:34:55;;;;;;;14.03;10.70;;;9.90;99.90;;;;;;5052816;28;20202;-88
2022/11/11 05:37:23;;;;;;;15.37;10.33;;;10.00;99.90;;;;;;5053738;28;20213;-88
2022/11/11 05:39:49;;;;;;;15.37;9.57;;;9.90;99.90;;;;;;5047379;28;20211;-87
2022/11/11 05:42:16;;;;;;;13.07;10.57;;;9.90;99.90;;;;;;5050229;28;20209;-88
2022/11/11 05:44:45;;;;;;;16.00;9.90;;;9.80;99.90;;;;;;5055765;28;20563;-88
2022/11/11 05:47:12;;;;;;;18.88;12.32;;;9.90;99.90;;;;;;5054970;28;20453;-88
2022/11/11 05:49:43;;;;;;;15.43;10.97;;;9.90;99.90;;;;;;5038278;28;20198;-88
2022/11/11 05:52:12;;;;;;;14.27;10.20;;;9.80;99.90;;;;;;5055402;28;20210;-88
2022/11/11 05:54:39;;;;;;;17.03;9.53;;;9.90;99.90;;;;;;5055746;28;20201;-87
2022/11/11 05:57:07;;;;;;;13.73;9.77;;;10.00;99.90;;;;;;5055492;28;20202;-87
2022/11/11 05:59:35;;;;;;;13.47;9.60;;;9.90;99.90;;;;;;5055407;28;20210;-88
2022/11/11 06:02:03;;;;;;;12.40;9.27;;;9.90;99.90;;;;;;5055113;28;20626;-87
2022/11/11 06:04:33;;;;;;;12.40;9.00;;;9.70;99.90;;;;;;5055206;28;20205;-87
2022/11/11 06:07:02;;;;;;;11.70;9.00;;;9.70;99.90;;;;;;5055403;28;20275;-89
2022/11/11 06:09:30;;;;;;;13.73;8.93;;;9.60;99.90;;;;;;5055480;28;20213;-90
2022/11/11 06:11:57;;;;;;;14.23;9.90;;;9.50;99.90;;;;;;5046502;28;20203;-91
2022/11/11 06:14:23;;;;;;;12.43;9.37;;;9.50;99.90;;;;;;5050936;28;20210;-90
2022/11/11 06:16:50;;;;;;;12.33;9.03;;;9.60;99.90;;;;;;5055161;28;20213;-89
2022/11/11 06:19:18;;;;;;;11.53;9.00;;;9.50;99.90;;;;;;5055714;28;20203;-90
2022/11/11 06:21:57;;;;;;;9.77;8.77;;;9.60;99.90;;;;;;5055021;28;20206;-89
2022/11/11 06:24:29;;;;;;;12.23;8.93;;;9.50;99.90;;;;;;5054907;28;20728;-89
2022/11/11 06:26:56;;;;;;;13.57;9.43;;;9.40;99.90;;;;;;5055303;28;20218;-91
2022/11/11 06:29:29;;;;;;;11.57;9.80;;;9.40;99.90;;;;;;5055500;28;20538;-87
2022/11/11 06:31:59;;;;;;;11.07;8.83;;;9.60;99.90;;;;;;5037656;28;20207;-88
2022/11/11 06:34:25;;;;;;;13.93;8.50;;;9.40;99.90;;;;;;5054733;28;20213;-91
2022/11/11 06:36:52;;;;;;;10.37;8.70;;;9.50;99.90;;;;;;5054782;28;20202;-88
2022/11/11 06:39:19;;;;;;;10.00;8.47;;;9.40;99.90;;;;;;5054837;28;20224;-89
2022/11/11 06:41:48;;;;;;;10.87;8.57;;;9.40;99.90;;;;;;5054664;28;20211;-89
2022/11/11 06:44:16;;;;;;;12.23;8.60;;;9.40;99.90;;;;;;5054979;28;20572;-87
2022/11/11 06:46:44;;;;;;;10.67;7.80;;;9.30;99.90;;;;;;5054481;28;20668;-89
2022/11/11 06:49:11;;;;;;;9.90;8.43;;;9.30;99.90;;;;;;5054560;28;20207;-88
2022/11/11 06:51:38;;;;;;;12.33;8.23;;;9.40;99.90;;;;;;5055018;28;20221;-89
2022/11/11 06:54:05;;;;;;;14.03;7.93;;;9.40;99.90;;;;;;5054554;28;20209;-88
2022/11/11 06:56:32;;;;;;;11.00;7.40;;;9.40;99.90;;;;;;5054793;28;20214;-89
2022/11/11 06:59:00;;;;;;;10.00;8.27;;;9.40;99.90;;;;;;5054735;28;20202;-89
2022/11/11 07:01:27;;;;;;;10.60;7.83;;;9.40;99.90;;;;;;5055285;28;20199;-88
2022/11/11 07:03:57;;;;;;;11.03;8.10;;;9.40;99.90;;;;;;5054223;28;20692;-89
2022/11/11 07:06:24;;;;;;;8.97;8.03;;;9.30;99.90;;;;;;5054481;28;20235;-90
2022/11/11 07:08:54;;;;;;;8.93;7.70;;;9.30;99.90;;;;;;5054114;28;20206;-87
2022/11/11 07:11:22;;;;;;;13.57;8.33;;;9.30;99.90;;;;;;5036969;28;20202;-89
2022/11/11 07:13:48;;;;;;;9.00;7.27;;;9.30;99.90;;;;;;5047494;28;20218;-89
2022/11/11 07:16:17;;;;;;;11.68;9.18;;;9.30;99.90;;;;;;5051604;28;20436;-88
2022/11/11 07:18:44;;;;;;;11.23;7.73;;;9.40;99.90;;;;;;5055600;28;20206;-91
2022/11/11 07:21:12;;;;;;;12.93;7.63;;;9.40;99.90;;;;;;5059724;28;20209;-89
2022/11/11 07:23:41;;;;;;;8.80;7.43;;;9.30;99.90;;;;;;5064924;28;20222;-91
2022/11/11 07:26:08;;;;;;;7.60;6.63;;;9.30;99.90;;;;;;5054050;28;20211;-90
2022/11/11 07:28:37;;;;;;;10.83;7.23;;;9.30;99.90;;;;;;5054260;28;20221;-89
2022/11/11 07:31:06;;;;;;;8.70;7.00;;;9.40;99.90;;;;;;5054268;28;20206;-90
2022/11/11 07:33:35;;;;;;;8.77;6.03;;;9.40;99.90;;;;;;5053563;28;20281;-91
2022/11/11 07:36:02;;;;;;;7.53;6.80;;;9.50;99.90;;;;;;5050819;28;20194;-91
2022/11/11 07:38:29;;;;;;;8.87;6.33;;;9.40;99.90;;;;;;5057145;28;20328;-89
2022/11/11 07:40:57;;;;;;;8.27;6.30;;;9.40;99.90;;;;;;5053623;28;20209;-89
2022/11/11 07:43:24;;;;;;;9.13;5.50;;;9.40;99.90;;;;;;5050999;28;20213;-91
2022/11/11 07:45:52;;;;;;;7.50;5.53;;;9.40;99.90;;;;;;5053565;28;20209;-91
2022/11/11 07:48:19;;;;;;;12.87;6.40;;;9.40;99.90;;;;;;5053518;28;20230;-91
2022/11/11 07:50:51;;;;;;;8.00;6.30;;;9.40;99.90;;;;;;5050715;28;20552;-89
2022/11/11 07:53:18;;;;;;;10.80;6.60;;;9.40;99.90;;;;;;5055112;28;20203;-89
2022/11/11 07:55:46;;;;;;;12.40;6.10;;;9.50;99.90;;;;;;5039744;28;20215;-90
2022/11/11 07:58:15;;;;;;;7.33;5.77;;;9.50;99.90;;;;;;5033475;28;20207;-89
2022/11/11 08:00:47;;;;;;;8.00;5.67;;;9.50;99.90;;;;;;5043683;28;20657;-89
2022/11/11 08:03:14;;;;;;;8.47;5.73;;;9.60;99.90;;;;;;5050878;28;20201;-87
2022/11/11 08:05:41;;;;;;;10.83;5.53;;;9.60;99.90;;;;;;5053530;28;20213;-88
2022/11/11 08:08:12;;;;;;;6.00;5.40;;;9.60;99.90;;;;;;5053378;28;20226;-90
2022/11/11 08:10:39;;;;;;;11.07;5.23;;;9.50;99.90;;;;;;5056975;28;20206;-89
2022/11/11 08:15:50;;;;;;;6.13;5.53;;;9.60;99.90;;;;;;5057580;28;20370;-89
2022/11/11 08:18:17;;;;;;;8.07;6.13;;;9.60;99.90;;;;;;5057905;28;20206;-91
2022/11/11 08:20:44;;;;;;;12.30;5.63;;;9.60;99.90;;;;;;5056037;28;20193;-89
2022/11/11 08:23:13;;;;;;;8.77;5.10;;;9.60;99.90;;;;;;5059286;28;20194;-90
2022/11/11 08:25:40;;;;;;;7.17;5.20;;;9.70;99.90;;;;;;5060430;28;20221;-92
2022/11/11 08:28:07;;;;;;;8.43;5.13;;;9.80;99.90;;;;;;5063006;28;20762;-90
2022/11/11 08:30:34;;;;;;;8.13;5.30;;;9.80;99.90;;;;;;5066576;28;20573;-89
2022/11/11 08:33:02;;;;;;;9.43;5.03;;;9.90;99.90;;;;;;5055224;28;20654;-90
2022/11/11 08:35:30;;;;;;;7.10;5.07;;;9.90;99.90;;;;;;5055304;28;20205;-88
2022/11/11 08:38:01;;;;;;;7.07;5.10;;;9.80;99.90;;;;;;5045816;28;20207;-89
2022/11/11 08:40:29;;;;;;;10.27;5.50;;;9.80;99.90;;;;;;5045773;28;20564;-89
2022/11/11 08:42:57;;;;;;;9.17;5.33;;;9.80;99.90;;;;;;5051169;28;20195;-91
2022/11/11 08:45:23;;;;;;;8.17;5.37;;;9.80;99.90;;;;;;5050913;28;20241;-89
2022/11/11 08:47:50;;;;;;;11.03;6.10;;;9.80;99.90;;;;;;5055706;28;20225;-91
2022/11/11 08:50:18;;;;;;;7.03;5.53;;;9.70;99.90;;;;;;5053177;28;20579;-91
2022/11/11 08:52:46;;;;;;;8.33;4.80;;;9.80;99.90;;;;;;5065066;28;20190;-91
2022/11/11 08:55:13;;;;;;;6.13;4.63;;;9.70;99.90;;;;;;5060865;28;20218;-91
2022/11/11 08:57:41;;;;;;;5.57;5.00;;;9.80;99.90;;;;;;5062505;28;20198;-90
2022/11/11 09:00:10;;;;;;;7.73;5.23;;;9.80;99.90;;;;;;5058741;28;20207;-90
2022/11/11 09:02:37;;;;;;;8.10;5.87;;;9.80;99.90;;;;;;5063596;28;20207;-90
2022/11/11 09:05:05;;;;;;;10.37;7.10;;;9.80;99.90;;;;;;5059909;28;20210;-90
2022/11/11 09:07:32;;;;;;;6.87;5.30;;;10.00;99.90;;;;;;5056527;28;20245;-90
2022/11/11 09:09:59;;;;;;;9.73;5.83;;;9.90;99.90;;;;;;5056323;28;20210;-89
2022/11/11 09:12:26;;;;;;;7.57;6.27;;;10.00;99.90;;;;;;5056551;28;20202;-91
2022/11/11 09:14:55;;;;;;;8.17;6.60;;;10.00;99.90;;;;;;5055653;28;20206;-89
2022/11/11 09:17:22;;;;;;;10.93;7.27;;;9.90;99.90;;;;;;5056166;28;20561;-88
2022/11/11 09:19:49;;;;;;;8.87;6.60;;;10.00;99.90;;;;;;5056407;28;20569;-89
2022/11/11 09:22:16;;;;;;;8.20;6.60;;;10.00;99.90;;;;;;5055934;28;20225;-91
2022/11/11 09:24:42;;;;;;;8.93;6.47;;;10.00;99.90;;;;;;5055824;28;20199;-89
2022/11/11 09:27:10;;;;;;;7.23;6.43;;;10.00;99.90;;;;;;5055735;28;20407;-90
2022/11/11 09:29:37;;;;;;;10.77;7.63;;;10.10;99.90;;;;;;5058151;28;20198;-89
2022/11/11 09:32:06;;;;;;;8.37;7.43;;;10.10;99.90;;;;;;5067702;28;20202;-89
2022/11/11 09:34:32;;;;;;;9.97;7.63;;;10.10;99.90;;;;;;5055982;28;20203;-90
2022/11/11 09:36:59;;;;;;;10.73;7.77;;;10.20;99.90;;;;;;5055081;28;20654;-87
2022/11/11 09:39:26;;;;;;;10.23;8.07;;;10.20;99.90;;;;;;5055577;28;20210;-90
2022/11/11 09:42:01;;;;;;;9.67;7.83;;;10.30;99.90;;;;;;5055978;28;20300;-89
2022/11/11 09:44:41;;;;;;;12.50;8.30;;;10.30;99.90;;;;;;5055506;28;20198;-90
2022/11/11 09:47:16;;;;;;;11.87;8.07;;;10.50;99.90;;;;;;5056148;28;20214;-89
2022/11/11 09:49:51;;;;;;;15.77;8.80;;;10.60;99.90;;;;;;5055677;28;20209;-90
2022/11/11 09:52:20;;;;;;;10.67;8.70;;;10.60;99.90;;;;;;5055523;28;20569;-91
2022/11/11 09:54:55;;;;;;;12.23;8.43;;;10.60;99.90;;;;;;5055896;28;20570;-89
2022/11/11 09:57:36;;;;;;;9.47;7.87;;;10.70;99.90;;;;;;5055505;28;20207;-89
2022/11/11 10:00:07;;;;;;;11.10;8.20;;;10.90;99.90;;;;;;5055975;28;20218;-88
2022/11/11 10:02:42;;;;;;;9.17;7.93;;;10.90;99.90;;;;;;5054911;28;20210;-89
2022/11/11 10:05:12;;;;;;;12.13;8.50;;;10.80;99.90;;;;;;5055604;28;20205;-90
2022/11/11 10:07:44;;;;;;;11.93;9.27;;;10.90;99.90;;;;;;5057875;28;20700;-90
2022/11/11 10:10:22;;;;;;;9.67;8.33;;;11.00;99.90;;;;;;5055642;28;20218;-92
2022/11/11 10:12:54;;;;;;;10.20;9.20;;;11.10;99.90;;;;;;5054449;28;20294;-89
2022/11/11 10:15:22;;;;;;;11.63;8.30;;;11.30;99.90;;;;;;5055258;28;20199;-89
2022/11/11 10:18:18;;;;;;;11.40;8.77;;;11.30;99.90;;;;;;5055353;28;20298;-92
2022/11/11 10:20:52;;;;;;;12.07;8.33;;;11.40;99.90;;;;;;5055445;28;20215;-90
2022/11/11 10:23:24;;;;;;;9.20;8.20;;;11.40;99.90;;;;;;5041480;28;20553;-89
2022/11/11 10:25:54;;;;;;;14.00;9.70;;;11.50;99.90;;;;;;5054730;28;20203;-89
2022/11/11 10:28:25;;;;;;;11.43;8.87;;;11.60;99.90;;;;;;5054767;28;20232;-89
2022/11/11 10:30:52;;;;;;;12.40;8.90;;;11.70;99.90;;;;;;5054776;28;20210;-88
2022/11/11 10:33:26;;;;;;;9.17;7.27;;;11.80;99.90;;;;;;5054732;28;20226;-90
2022/11/11 10:35:56;;;;;;;11.83;8.33;;;11.70;99.90;;;;;;5055357;28;20211;-90
2022/11/11 10:38:33;;;;;;;9.23;8.30;;;11.70;99.90;;;;;;5055048;28;20208;-90
2022/11/11 10:41:10;;;;;;;10.10;8.77;;;11.80;99.90;;;;;;5055259;28;20215;-88
2022/11/11 10:43:38;;;;;;;7.97;6.93;;;11.80;99.90;;;;;;5054390;28;20202;-89
2022/11/11 10:46:11;;;;;;;7.93;7.10;;;12.00;99.90;;;;;;5054975;28;20212;-89
2022/11/11 10:48:51;;;;;;;10.10;6.90;;;12.00;99.90;;;;;;5054112;28;20252;-89
2022/11/11 10:51:18;;;;;;;9.07;7.30;;;12.00;99.90;;;;;;5054248;28;20200;-88
2022/11/11 10:53:54;;;;;;;8.33;7.27;;;12.10;99.90;;;;;;5050621;28;20210;-88
2022/11/11 10:56:29;;;;;;;9.03;7.27;;;12.20;99.90;;;;;;5053555;28;20208;-91
2022/11/11 10:59:02;;;;;;;8.33;7.23;;;12.20;99.90;;;;;;5053854;28;20209;-88
2022/11/11 11:01:35;;;;;;;10.73;7.00;;;12.30;99.90;;;;;;5037226;28;20201;-89
2022/11/11 11:04:09;;;;;;;9.57;6.77;;;12.30;99.90;;;;;;5054451;28;20253;-91
2022/11/11 11:06:38;;;;;;;9.27;7.00;;;12.20;99.90;;;;;;5054197;28;20231;-88
2022/11/11 11:09:11;;;;;;;8.87;7.63;;;12.10;99.90;;;;;;5054505;28;20239;-90
2022/11/11 11:11:42;;;;;;;12.10;9.40;;;12.10;99.90;;;;;;5053472;28;20197;-89
2022/11/11 11:14:16;;;;;;;8.73;7.20;;;12.10;99.90;;;;;;5053118;28;20209;-90
2022/11/11 11:16:49;;;;;;;7.30;6.60;;;12.20;99.90;;;;;;5049464;28;20232;-90
2022/11/11 11:19:23;;;;;;;9.70;7.50;;;12.20;99.90;;;;;;5045523;28;20240;-91
2022/11/11 11:21:52;;;;;;;8.50;7.13;;;12.10;99.90;;;;;;5056526;28;20209;-91
2022/11/11 11:24:21;;;;;;;8.40;6.90;;;12.20;99.90;;;;;;5058937;28;20208;-90
2022/11/11 11:26:50;;;;;;;7.00;6.13;;;12.30;99.90;;;;;;5041723;28;20209;-91
2022/11/11 11:29:25;;;;;;;11.47;6.87;;;12.30;99.90;;;;;;5056063;28;20237;-88
2022/11/11 11:31:52;;;;;;;10.90;7.20;;;12.40;99.90;;;;;;5056996;28;20212;-90
2022/11/11 11:34:21;;;;;;;8.73;6.77;;;12.50;99.90;;;;;;5054461;28;20277;-90
2022/11/11 11:37:01;;;;;;;11.30;7.33;;;12.50;99.90;;;;;;5054017;28;20202;-89
2022/11/11 11:39:35;;;;;;;8.87;6.53;;;12.50;99.90;;;;;;5054037;28;20212;-89
2022/11/11 11:42:01;;;;;;;7.50;6.70;;;12.70;99.90;;;;;;5055429;28;20205;-91
2022/11/11 11:44:29;;;;;;;8.70;6.87;;;12.70;99.90;;;;;;5060024;28;20206;-87
2022/11/11 11:47:11;;;;;;;7.67;6.07;;;12.80;99.90;;;;;;5063106;28;20202;-86
2022/11/11 11:49:53;;;;;;;7.60;6.50;;;12.80;99.90;;;;;;5059537;28;20696;-88
2022/11/11 11:52:34;;;;;;;7.37;6.63;;;12.80;99.90;;;;;;5071608;28;20213;-88
2022/11/11 11:55:06;;;;;;;7.93;6.83;;;12.90;99.90;;;;;;5055960;28;20198;-86
2022/11/11 11:57:53;;;;;;;7.88;6.50;;;12.80;99.90;;;;;;5055551;28;20433;-87
2022/11/11 12:00:23;;;;;;;9.20;6.50;;;12.80;99.90;;;;;;5055707;28;20202;-87
2022/11/11 12:03:08;;;;;;;8.03;6.17;;;12.70;99.90;;;;;;5053870;28;20210;-86
2022/11/11 12:05:42;;;;;;;7.30;6.60;;;12.60;99.90;;;;;;5053486;28;20208;-87
2022/11/11 12:08:26;;;;;;;7.77;5.97;;;12.70;99.90;;;;;;5053533;28;20240;-87
2022/11/11 12:10:59;;;;;;;10.30;5.80;;;12.80;99.90;;;;;;5053556;28;20205;-87
2022/11/11 12:13:43;;;;;;;7.27;6.50;;;12.90;99.90;;;;;;5067722;28;20206;-86
2022/11/11 12:16:24;;;;;;;7.97;6.20;;;12.90;99.90;;;;;;5053089;28;20208;-88
2022/11/11 12:19:10;;;;;;;8.77;6.80;;;13.00;99.90;;;;;;5053082;28;20614;-86
2022/11/11 12:21:51;;;;;;;7.80;6.10;;;13.00;99.90;;;;;;5053282;28;20308;-86
2022/11/11 12:24:44;;;;;;;12.73;10.40;;;13.20;99.90;;;;;;5051942;28;20453;-87
2022/11/11 12:27:22;;;;;;;7.63;6.43;;;13.20;99.90;;;;;;5053274;28;20668;-86
2022/11/11 12:30:01;;;;;;;9.10;7.47;;;13.20;99.90;;;;;;5052880;28;20230;-88
2022/11/11 12:32:45;;;;;;;12.07;6.73;;;13.30;99.90;;;;;;5039549;28;20194;-86
2022/11/11 12:35:29;;;;;;;9.93;6.77;;;13.30;99.90;;;;;;5053300;28;20202;-83
2022/11/11 12:38:20;;;;;;;8.67;5.17;;;13.30;99.90;;;;;;5054448;28;20221;-83
2022/11/11 12:40:55;;;;;;;7.63;4.43;;;13.50;99.90;;;;;;5053115;28;20202;-83
2022/11/11 12:43:29;;;;;;;10.73;6.27;;;13.50;99.90;;;;;;5052608;28;20210;-84
2022/11/11 12:46:05;;;;;;;8.60;5.53;;;13.50;99.90;;;;;;5052825;28;20218;-87
2022/11/11 12:48:51;;;;;;;7.77;5.67;;;13.50;99.90;;;;;;5053355;28;20228;-86
2022/11/11 12:51:37;;;;;;;5.70;4.33;;;13.60;99.90;;;;;;5053336;28;20202;-90
2022/11/11 12:54:19;;;;;;;5.50;4.20;;;13.60;99.90;;;;;;5053192;28;20684;-87
2022/11/11 12:56:53;;;;;;;5.40;4.10;;;13.60;99.90;;;;;;5051476;28;20209;-89
2022/11/11 12:59:40;;;;;;;5.03;4.03;;;13.70;99.90;;;;;;5048259;28;20195;-89
2022/11/11 13:02:24;;;;;;;4.40;4.00;;;13.70;99.90;;;;;;5051214;28;20206;-83
2022/11/11 13:05:10;;;;;;;6.00;4.47;;;13.80;99.90;;;;;;5052455;28;20207;-88
2022/11/11 13:07:52;;;;;;;9.30;4.77;;;14.00;99.90;;;;;;5053193;28;20231;-87
2022/11/11 13:10:32;;;;;;;6.67;4.30;;;13.90;99.90;;;;;;5053960;28;20226;-84
2022/11/11 13:13:09;;;;;;;5.43;3.57;;;14.00;99.90;;;;;;5057054;28;20210;-84
2022/11/11 13:15:35;;;;;;;5.97;4.43;;;14.10;99.90;;;;;;5057175;28;20195;-88
2022/11/11 13:18:15;;;;;;;4.93;3.73;;;14.10;99.90;;;;;;5057505;28;20215;-88
2022/11/11 13:20:50;;;;;;;5.23;3.97;;;14.10;99.90;;;;;;5058600;28;20210;-84
2022/11/11 13:23:20;;;;;;;5.47;3.93;;;14.10;99.90;;;;;;5057612;28;20206;-86
2022/11/11 13:26:00;;;;;;;4.07;3.37;;;14.00;99.90;;;;;;5057164;28;20206;-87
2022/11/11 13:28:33;;;;;;;4.00;3.17;;;13.90;99.90;;;;;;5057373;28;20213;-89
2022/11/11 13:31:15;;;;;;;5.27;3.40;;;13.90;99.90;;;;;;5056510;28;20207;-83
2022/11/11 13:33:44;;;;;;;5.87;2.87;;;13.90;99.90;;;;;;5055808;28;20215;-85
2022/11/11 13:36:14;;;;;;;4.40;2.90;;;14.00;99.90;;;;;;5051976;28;20646;-86
2022/11/11 13:38:47;;;;;;;4.60;2.97;;;14.10;99.90;;;;;;5046982;28;20226;-84
2022/11/11 13:41:22;;;;;;;2.97;2.70;;;14.20;99.90;;;;;;5048731;28;20657;-87
2022/11/11 13:43:51;;;;;;;6.40;2.87;;;14.30;99.90;;;;;;5050163;28;20322;-84
2022/11/11 13:46:37;;;;;;;3.47;3.00;;;14.30;99.90;;;;;;5052061;28;20195;-84
2022/11/11 13:49:07;;;;;;;6.77;2.90;;;14.50;99.90;;;;;;5049925;28;20297;-83
2022/11/11 13:51:38;;;;;;;4.07;3.20;;;14.50;99.90;;;;;;5050913;28;20207;-84
2022/11/11 13:54:19;;;;;;;6.77;3.70;;;14.40;99.90;;;;;;5045233;28;20214;-85
2022/11/11 13:56:50;;;;;;;5.37;3.87;;;14.40;99.90;;;;;;5046996;28;20655;-84
2022/11/11 13:59:23;;;;;;;4.60;3.60;;;14.30;99.90;;;;;;5048759;28;20700;-84
2022/11/11 14:02:14;;;;;;;4.20;3.57;;;14.40;99.90;;;;;;5051907;28;20211;-84
2022/11/11 14:05:19;;;;;;;4.77;3.83;;;14.50;99.90;;;;;;5050892;28;20204;-82
2022/11/11 14:07:53;;;;;;;8.73;4.30;;;14.70;99.90;;;;;;5055313;28;20719;-87
2022/11/11 14:10:59;;;;;;;7.13;5.28;;;14.60;99.90;;;;;;5054459;28;20449;-85
2022/11/11 14:13:42;;;;;;;6.07;4.87;;;14.80;99.90;;;;;;5049166;28;20287;-82
2022/11/11 14:16:12;;;;;;;6.33;4.60;;;14.70;99.90;;;;;;5054756;28;20212;-82
2022/11/11 14:18:45;;;;;;;6.80;4.20;;;14.50;99.90;;;;;;5054573;28;20207;-82
2022/11/11 14:21:43;;;;;;;5.47;4.70;;;14.40;99.90;;;;;;5054522;28;20666;-84